createdAt,value
2023-04-19T00:02:23.845Z,14.95
2023-04-19T00:04:50.422Z,15.05
2023-04-19T00:07:16.938Z,16.00
2023-04-19T00:09:43.361Z,15.00
2023-04-19T00:12:09.782Z,15.45
2023-04-19T00:14:36.113Z,16.33
2023-04-19T00:17:02.655Z,17.50
2023-04-19T00:19:29.055Z,13.85
2023-04-19T00:21:55.535Z,15.00
2023-04-19T00:24:21.962Z,13.73
2023-04-19T00:26:48.588Z,12.18
2023-04-19T00:29:15.142Z,15.82
2023-04-19T00:31:41.492Z,14.20
2023-04-19T00:34:07.884Z,14.43
2023-04-19T00:36:34.247Z,15.35
2023-04-19T00:39:00.681Z,15.25
2023-04-19T00:41:27.168Z,13.20
2023-04-19T00:43:53.568Z,15.98
2023-04-19T00:46:20.599Z,17.38
2023-04-19T00:48:48.088Z,16.08
2023-04-19T00:51:14.626Z,16.88
2023-04-19T00:53:41.760Z,13.80
2023-04-19T00:56:09.588Z,15.35
2023-04-19T00:58:38.069Z,14.70
2023-04-19T01:01:04.434Z,17.73
2023-04-19T01:03:31.112Z,16.42
2023-04-19T01:05:58.312Z,14.63
2023-04-19T01:08:24.693Z,15.13
2023-04-19T01:10:51.325Z,15.80
2023-04-19T01:13:18.031Z,16.02
2023-04-19T01:15:44.598Z,16.45
2023-04-19T01:18:11.930Z,15.05
2023-04-19T01:20:38.361Z,18.05
2023-04-19T01:23:04.818Z,14.82
2023-04-19T01:25:31.291Z,16.25
2023-04-19T01:27:57.678Z,16.20
2023-04-19T01:30:24.095Z,17.75
2023-04-19T01:32:50.660Z,15.90
2023-04-19T01:35:17.405Z,14.80
2023-04-19T01:37:43.772Z,16.08
2023-04-19T01:40:11.041Z,17.23
2023-04-19T01:42:37.553Z,19.10
2023-04-19T01:45:04.419Z,17.20
2023-04-19T01:47:33.552Z,15.80
2023-04-19T01:49:59.966Z,15.55
2023-04-19T01:52:26.361Z,18.52
2023-04-19T01:54:53.084Z,16.23
2023-04-19T01:57:19.578Z,16.83
2023-04-19T01:59:46.235Z,20.33
2023-04-19T02:02:12.683Z,18.77
2023-04-19T02:04:39.198Z,17.17
2023-04-19T02:07:05.608Z,19.15
2023-04-19T02:09:35.782Z,17.45
2023-04-19T02:12:02.341Z,14.82
2023-04-19T02:14:29.170Z,16.90
2023-04-19T02:16:55.696Z,17.67
2023-04-19T02:19:22.527Z,17.17
2023-04-19T02:21:48.960Z,16.83
2023-04-19T02:24:15.994Z,17.50
2023-04-19T02:26:42.555Z,16.85
2023-04-19T02:29:09.345Z,18.92
2023-04-19T02:31:36.478Z,18.08
2023-04-19T02:34:02.882Z,17.83
2023-04-19T02:36:29.306Z,17.77
2023-04-19T02:38:55.795Z,18.75
2023-04-19T02:41:22.299Z,17.70
2023-04-19T02:43:49.020Z,17.92
2023-04-19T02:46:15.434Z,18.17
2023-04-19T02:48:42.160Z,18.55
2023-04-19T02:51:08.601Z,20.35
2023-04-19T02:53:35.261Z,19.42
2023-04-19T02:56:02.355Z,20.38
2023-04-19T02:58:29.022Z,19.48
2023-04-19T03:00:55.512Z,18.33
2023-04-19T03:03:21.909Z,19.15
2023-04-19T03:05:48.635Z,19.92
2023-04-19T03:08:15.363Z,20.75
2023-04-19T03:10:42.526Z,18.73
2023-04-19T03:13:08.861Z,24.08
2023-04-19T03:15:35.381Z,18.58
2023-04-19T03:18:01.868Z,19.63
2023-04-19T03:20:28.336Z,18.13
2023-04-19T03:22:54.803Z,20.13
2023-04-19T03:25:21.580Z,18.02
2023-04-19T03:27:48.282Z,23.83
2023-04-19T03:30:15.435Z,19.92
2023-04-19T03:32:41.968Z,21.90
2023-04-19T03:35:09.139Z,19.42
2023-04-19T03:37:35.678Z,19.80
2023-04-19T03:40:02.383Z,18.52
2023-04-19T03:42:29.246Z,18.10
2023-04-19T03:44:56.730Z,19.80
2023-04-19T03:47:23.298Z,20.98
2023-04-19T03:49:49.745Z,21.65
2023-04-19T03:52:16.379Z,22.48
2023-04-19T03:54:43.053Z,20.30
2023-04-19T03:57:09.581Z,21.35
2023-04-19T03:59:35.988Z,21.15
2023-04-19T04:02:02.761Z,22.38
2023-04-19T04:04:29.492Z,20.73
2023-04-19T04:06:56.320Z,22.98
2023-04-19T04:09:22.759Z,22.77
2023-04-19T04:11:49.206Z,24.10
2023-04-19T04:14:15.741Z,26.25
2023-04-19T04:16:42.455Z,22.90
2023-04-19T04:19:09.065Z,19.90
2023-04-19T04:21:35.836Z,23.17
2023-04-19T04:24:02.250Z,21.17
2023-04-19T04:26:28.850Z,24.02
2023-04-19T04:28:55.232Z,23.67
2023-04-19T04:31:21.777Z,22.95
2023-04-19T04:33:48.253Z,22.55
2023-04-19T04:36:14.642Z,24.67
2023-04-19T04:38:41.170Z,19.95
2023-04-19T04:41:07.688Z,21.27
2023-04-19T04:43:34.175Z,22.38
2023-04-19T04:46:02.068Z,21.50
2023-04-19T04:48:28.807Z,22.75
2023-04-19T04:50:55.299Z,25.65
2023-04-19T04:53:22.088Z,27.88
2023-04-19T04:55:48.926Z,26.85
2023-04-19T04:58:15.756Z,23.65
2023-04-19T05:00:42.189Z,24.45
2023-04-19T05:03:08.689Z,22.65
2023-04-19T05:05:35.524Z,23.13
2023-04-19T05:08:01.937Z,25.08
2023-04-19T05:10:28.461Z,20.67
2023-04-19T05:12:55.114Z,17.10
2023-04-19T05:15:22.396Z,22.33
2023-04-19T05:17:48.976Z,19.45
2023-04-19T05:20:15.633Z,19.55
2023-04-19T05:22:41.997Z,20.10
2023-04-19T05:25:10.597Z,21.77
2023-04-19T05:27:37.262Z,27.05
2023-04-19T05:30:05.190Z,19.83
2023-04-19T05:32:31.723Z,22.63
2023-04-19T05:34:58.566Z,18.52
2023-04-19T05:37:24.971Z,20.20
2023-04-19T05:39:51.432Z,21.98
2023-04-19T05:42:19.301Z,19.77
2023-04-19T05:44:45.664Z,19.23
2023-04-19T05:47:12.078Z,19.83
2023-04-19T05:49:41.266Z,18.70
2023-04-19T05:52:08.755Z,20.63
2023-04-19T05:54:35.386Z,18.23
2023-04-19T05:57:05.246Z,19.05
2023-04-19T05:59:31.929Z,20.07
2023-04-19T06:01:58.534Z,17.95
2023-04-19T06:04:25.508Z,18.48
2023-04-19T06:06:54.753Z,18.48
2023-04-19T06:09:24.428Z,17.90
2023-04-19T06:11:52.068Z,15.52
2023-04-19T06:14:19.106Z,17.50
2023-04-19T06:16:46.057Z,18.67
2023-04-19T06:19:12.534Z,16.92
2023-04-19T06:21:39.409Z,22.13
2023-04-19T06:24:08.587Z,23.48
2023-04-19T06:26:35.122Z,23.08
2023-04-19T06:29:02.677Z,18.20
2023-04-19T06:31:29.436Z,16.40
2023-04-19T06:33:55.877Z,18.77
2023-04-19T06:36:22.319Z,14.70
2023-04-19T06:38:48.755Z,15.15
2023-04-19T06:41:15.297Z,17.00
2023-04-19T06:43:42.159Z,14.98
2023-04-19T06:46:08.887Z,16.10
2023-04-19T06:48:35.613Z,14.30
2023-04-19T06:51:02.365Z,16.40
2023-04-19T06:53:29.081Z,14.93
2023-04-19T06:56:00.250Z,17.55
2023-04-19T06:58:27.690Z,19.25
2023-04-19T07:00:55.162Z,17.58
2023-04-19T07:03:22.756Z,14.82
2023-04-19T07:05:49.757Z,12.77
2023-04-19T07:08:16.461Z,18.02
2023-04-19T07:10:43.028Z,14.23
2023-04-19T07:13:11.330Z,16.23
2023-04-19T07:15:37.969Z,13.90
2023-04-19T07:18:04.771Z,14.10
2023-04-19T07:20:31.567Z,14.07
2023-04-19T07:23:00.806Z,15.23
2023-04-19T07:25:27.727Z,15.98
2023-04-19T07:27:55.883Z,14.23
2023-04-19T07:30:23.665Z,15.13
2023-04-19T07:32:52.594Z,14.43
2023-04-19T07:35:19.204Z,13.90
2023-04-19T07:37:46.072Z,13.02
2023-04-19T07:40:13.382Z,12.75
2023-04-19T07:42:40.070Z,12.90
2023-04-19T07:45:07.337Z,13.35
2023-04-19T07:47:36.159Z,10.98
2023-04-19T07:50:04.840Z,16.52
2023-04-19T07:52:31.225Z,12.60
2023-04-19T07:54:57.576Z,11.52
2023-04-19T07:57:24.012Z,14.00
2023-04-19T07:59:50.740Z,12.65
2023-04-19T08:02:17.767Z,12.73
2023-04-19T08:04:45.441Z,12.52
2023-04-19T08:07:12.527Z,11.93
2023-04-19T08:09:39.142Z,12.07
2023-04-19T08:12:05.782Z,12.02
2023-04-19T08:14:38.046Z,11.85
2023-04-19T08:17:25.544Z,11.38
2023-04-19T08:19:53.560Z,10.52
2023-04-19T08:22:21.697Z,10.65
2023-04-19T08:24:50.513Z,11.63
2023-04-19T08:27:16.899Z,12.30
2023-04-19T08:29:43.725Z,14.48
2023-04-19T08:32:12.614Z,12.88
2023-04-19T08:34:40.023Z,11.40
2023-04-19T08:37:07.167Z,11.60
2023-04-19T08:39:35.511Z,14.15
2023-04-19T08:42:13.202Z,10.82
2023-04-19T08:45:13.671Z,12.32
2023-04-19T08:47:58.813Z,12.82
2023-04-19T08:50:48.396Z,13.52
2023-04-19T08:53:26.118Z,11.70
2023-04-19T08:58:32.952Z,15.75
2023-04-19T09:01:08.172Z,13.43
2023-04-19T09:03:44.270Z,13.63
2023-04-19T09:06:20.051Z,14.70
2023-04-19T09:08:46.611Z,12.38
2023-04-19T09:11:13.523Z,14.13
2023-04-19T09:13:40.652Z,14.13
2023-04-19T09:16:07.521Z,11.43
2023-04-19T09:18:59.925Z,14.93
2023-04-19T09:21:34.067Z,11.93
2023-04-19T09:24:02.424Z,13.75
2023-04-19T09:26:30.730Z,12.52
2023-04-19T09:29:02.114Z,11.93
2023-04-19T09:31:48.137Z,18.73
2023-04-19T09:34:20.404Z,14.30
2023-04-19T09:36:47.118Z,10.57
2023-04-19T09:39:14.387Z,11.70
2023-04-19T09:41:54.561Z,11.35
2023-04-19T09:46:53.893Z,10.27
2023-04-19T09:49:36.960Z,10.82
2023-04-19T09:52:10.513Z,11.43
2023-04-19T09:54:38.229Z,10.77
2023-04-19T09:57:05.216Z,10.43
2023-04-19T09:59:32.019Z,10.73
2023-04-19T10:02:01.207Z,11.68
2023-04-19T10:04:44.080Z,11.05
2023-04-19T10:07:30.242Z,13.52
2023-04-19T10:10:11.664Z,12.38
2023-04-19T10:13:11.583Z,10.18
2023-04-19T10:18:08.841Z,10.95
2023-04-19T10:20:50.424Z,11.40
2023-04-19T10:23:17.792Z,9.88
2023-04-19T10:25:48.187Z,10.88
2023-04-19T10:28:16.764Z,10.23
2023-04-19T10:31:05.197Z,11.95
2023-04-19T10:33:36.242Z,10.20
2023-04-19T10:36:03.419Z,10.95
2023-04-19T10:38:44.044Z,10.73
2023-04-19T10:41:10.652Z,14.18
2023-04-19T10:43:38.614Z,11.50
2023-04-19T10:46:11.214Z,10.55
2023-04-19T10:48:43.027Z,9.88
2023-04-19T10:51:17.536Z,10.93
2023-04-19T10:53:45.381Z,8.80
2023-04-19T10:56:12.227Z,10.35
2023-04-19T10:59:00.685Z,12.20
2023-04-19T11:01:37.634Z,13.02
2023-04-19T11:04:04.793Z,12.73
2023-04-19T11:06:32.434Z,10.85
2023-04-19T11:08:59.692Z,11.40
2023-04-19T11:11:26.746Z,12.85
2023-04-19T11:13:56.340Z,11.23
2023-04-19T11:16:31.319Z,10.27
2023-04-19T11:19:08.713Z,10.90
2023-04-19T11:21:40.542Z,10.52
2023-04-19T11:24:11.494Z,10.18
2023-04-19T11:26:38.239Z,13.82
2023-04-19T11:29:05.184Z,11.10
2023-04-19T11:31:34.737Z,11.80
2023-04-19T11:34:03.055Z,11.70
2023-04-19T11:36:29.450Z,11.10
2023-04-19T11:38:56.286Z,11.25
2023-04-19T11:41:22.791Z,13.63
2023-04-19T11:43:51.148Z,12.43
2023-04-19T11:46:18.839Z,15.93
2023-04-19T11:48:54.614Z,14.38
2023-04-19T11:51:22.139Z,15.95
2023-04-19T11:53:48.686Z,17.15
2023-04-19T11:56:15.703Z,18.02
2023-04-19T11:58:43.330Z,17.60
2023-04-19T12:01:14.517Z,17.55
2023-04-19T12:03:45.301Z,15.95
2023-04-19T12:06:17.982Z,16.95
2023-04-19T12:08:49.279Z,18.35
2023-04-19T12:11:19.153Z,21.38
2023-04-19T12:13:45.718Z,20.33
2023-04-19T12:16:13.872Z,18.40
2023-04-19T12:18:51.459Z,19.38
2023-04-19T12:21:31.811Z,21.73
2023-04-19T12:24:00.600Z,18.15
2023-04-19T12:26:28.682Z,20.00
2023-04-19T12:28:56.164Z,21.88
2023-04-19T12:31:22.790Z,22.27
2023-04-19T12:33:51.609Z,21.60
2023-04-19T12:36:18.159Z,21.10
2023-04-19T12:38:44.600Z,19.52
2023-04-19T12:41:11.537Z,22.88
2023-04-19T12:43:38.180Z,20.13
2023-04-19T12:46:05.707Z,22.75
2023-04-19T12:48:32.241Z,21.92
2023-04-19T12:50:58.958Z,21.05
2023-04-19T12:53:27.197Z,20.25
2023-04-19T12:55:53.718Z,23.08
2023-04-19T12:58:20.757Z,22.13
2023-04-19T13:00:47.562Z,21.38
2023-04-19T13:03:14.139Z,21.42
2023-04-19T13:05:41.877Z,21.13
2023-04-19T13:08:08.761Z,19.33
2023-04-19T13:10:35.445Z,21.98
2023-04-19T13:13:01.857Z,22.48
2023-04-19T13:15:28.256Z,21.77
2023-04-19T13:17:54.996Z,20.20
2023-04-19T13:20:22.441Z,21.73
2023-04-19T13:22:48.973Z,23.02
2023-04-19T13:25:15.766Z,20.08
2023-04-19T13:27:42.624Z,21.63
2023-04-19T13:30:10.556Z,20.73
2023-04-19T13:32:40.302Z,21.60
2023-04-19T13:35:07.240Z,19.95
2023-04-19T13:37:38.529Z,20.08
2023-04-19T13:40:18.071Z,20.52
2023-04-19T13:42:46.492Z,24.13
2023-04-19T13:45:15.462Z,23.15
2023-04-19T13:47:44.179Z,19.50
2023-04-19T13:50:11.162Z,20.95
2023-04-19T13:52:40.103Z,18.15
2023-04-19T13:55:07.151Z,14.98
2023-04-19T13:57:33.684Z,22.92
2023-04-19T14:00:00.444Z,17.58
2023-04-19T14:02:28.536Z,19.35
2023-04-19T14:04:55.842Z,18.92
2023-04-19T14:07:22.231Z,21.60
2023-04-19T14:09:48.712Z,16.80
2023-04-19T14:12:15.096Z,19.83
2023-04-19T14:14:41.591Z,17.52
2023-04-19T14:17:08.016Z,18.40
2023-04-19T14:19:34.389Z,18.95
2023-04-19T14:22:01.077Z,18.00
2023-04-19T14:24:27.795Z,18.27
2023-04-19T14:27:09.125Z,19.20
2023-04-19T14:29:37.221Z,20.52
2023-04-19T14:32:17.138Z,18.50
2023-04-19T14:34:50.799Z,23.00
2023-04-19T14:37:17.930Z,22.23
2023-04-19T14:39:45.299Z,23.20
2023-04-19T14:42:12.115Z,22.27
2023-04-19T14:44:38.443Z,19.95
2023-04-19T14:47:04.902Z,19.00
2023-04-19T14:49:31.651Z,20.85
2023-04-19T14:51:58.290Z,20.40
2023-04-19T14:54:25.253Z,19.23
2023-04-19T14:56:52.017Z,18.92
2023-04-19T14:59:18.601Z,19.65
2023-04-19T15:01:45.084Z,18.10
2023-04-19T15:04:12.159Z,20.55
2023-04-19T15:06:40.826Z,20.98
2023-04-19T15:09:08.396Z,17.30
2023-04-19T15:11:34.863Z,16.77
2023-04-19T15:14:01.325Z,16.50
2023-04-19T15:16:28.090Z,17.30
2023-04-19T15:18:55.105Z,18.92
2023-04-19T15:21:24.337Z,18.90
2023-04-19T15:23:51.454Z,18.10
2023-04-19T15:26:20.333Z,18.98
2023-04-19T15:28:49.208Z,16.60
2023-04-19T15:31:15.720Z,17.85
2023-04-19T15:33:42.429Z,16.08
2023-04-19T15:36:09.239Z,17.52
2023-04-19T15:38:36.168Z,16.25
2023-04-19T15:41:02.925Z,16.75
2023-04-19T15:43:29.476Z,15.68
2023-04-19T15:45:56.206Z,14.20
2023-04-19T15:48:22.846Z,13.32
2023-04-19T15:50:50.728Z,18.15
2023-04-19T15:53:17.538Z,13.43
2023-04-19T15:55:45.973Z,16.33
2023-04-19T15:58:12.391Z,18.02
2023-04-19T16:00:38.876Z,18.35
2023-04-19T16:03:05.470Z,17.33
2023-04-19T16:05:32.201Z,15.55
2023-04-19T16:08:06.942Z,15.20
2023-04-19T16:10:34.349Z,17.60
2023-04-19T16:13:01.429Z,18.77
2023-04-19T16:15:28.759Z,15.15
2023-04-19T16:17:55.873Z,19.23
2023-04-19T16:20:22.693Z,15.45
2023-04-19T16:22:49.322Z,16.40
2023-04-19T16:25:16.415Z,16.58
2023-04-19T16:27:44.318Z,13.10
2023-04-19T16:30:12.278Z,14.88
2023-04-19T16:32:39.637Z,16.73
2023-04-19T16:35:07.598Z,15.00
2023-04-19T16:37:34.579Z,17.63
2023-04-19T16:40:08.487Z,15.68
2023-04-19T16:42:35.777Z,15.18
2023-04-19T16:45:02.559Z,16.23
2023-04-19T16:47:29.153Z,14.45
2023-04-19T16:49:56.777Z,15.00
2023-04-19T16:52:25.373Z,15.52
2023-04-19T16:54:56.896Z,14.10
2023-04-19T16:57:23.648Z,15.95
2023-04-19T16:59:50.731Z,15.52
2023-04-19T17:02:17.779Z,14.02
2023-04-19T17:04:44.668Z,15.05
2023-04-19T17:07:12.158Z,14.23
2023-04-19T17:09:38.737Z,15.00
2023-04-19T17:12:05.775Z,15.65
2023-04-19T17:14:34.532Z,12.93
2023-04-19T17:17:01.383Z,15.68
2023-04-19T17:19:27.961Z,14.73
2023-04-19T17:21:54.499Z,14.93
2023-04-19T17:24:20.974Z,14.43
2023-04-19T17:26:47.866Z,17.13
2023-04-19T17:29:14.263Z,16.00
2023-04-19T17:31:42.121Z,14.27
2023-04-19T17:34:08.634Z,18.77
2023-04-19T17:36:35.184Z,14.63
2023-04-19T17:39:01.585Z,15.93
2023-04-19T17:41:28.344Z,18.60
2023-04-19T17:43:54.812Z,13.10
2023-04-19T17:46:21.229Z,18.33
2023-04-19T17:48:47.770Z,18.60
2023-04-19T17:51:14.538Z,17.23
2023-04-19T17:53:41.230Z,15.90
2023-04-19T17:56:07.720Z,18.05
2023-04-19T17:58:34.193Z,15.30
2023-04-19T18:01:00.641Z,16.63
2023-04-19T18:03:27.484Z,19.67
2023-04-19T18:05:54.135Z,20.15
2023-04-19T18:08:20.620Z,21.60
2023-04-19T18:10:47.201Z,18.08
2023-04-19T18:13:16.572Z,17.67
2023-04-19T18:15:42.963Z,17.83
2023-04-19T18:18:09.471Z,16.67
2023-04-19T18:20:36.505Z,16.70
2023-04-19T18:23:02.946Z,18.92
2023-04-19T18:25:29.705Z,17.20
2023-04-19T18:27:56.165Z,18.48
2023-04-19T18:30:23.041Z,15.60
2023-04-19T18:32:49.496Z,14.45
2023-04-19T18:35:16.120Z,18.30
2023-04-19T18:37:42.940Z,7.15
2023-04-19T18:40:11.935Z,5.95
2023-04-19T18:42:38.681Z,5.43
2023-04-19T18:45:05.712Z,3.97
2023-04-19T18:47:32.277Z,4.03
2023-04-19T18:50:05.191Z,5.40
2023-04-19T18:52:35.402Z,4.05
2023-04-19T18:55:02.483Z,4.63
2023-04-19T18:57:30.479Z,3.83
2023-04-19T19:00:00.945Z,3.33
2023-04-19T19:02:28.103Z,4.68
2023-04-19T19:04:57.775Z,5.47
2023-04-19T19:07:36.323Z,3.85
2023-04-19T19:10:15.955Z,6.00
2023-04-19T19:12:44.601Z,7.05
2023-04-19T19:15:11.301Z,6.43
2023-04-19T19:17:38.119Z,6.30
2023-04-19T19:20:05.829Z,5.55
2023-04-19T19:22:32.898Z,5.60
2023-04-19T19:24:59.413Z,6.50
2023-04-19T19:27:26.114Z,6.90
2023-04-19T19:29:52.844Z,6.68
2023-04-19T19:32:19.575Z,5.03
2023-04-19T19:34:55.602Z,7.88
2023-04-19T19:37:27.734Z,6.22
2023-04-19T19:39:56.737Z,4.38
2023-04-19T19:42:25.506Z,5.63
2023-04-19T19:44:55.499Z,4.53
2023-04-19T19:47:23.451Z,5.45
2023-04-19T19:50:34.929Z,7.15
2023-04-19T19:52:40.577Z,6.10
2023-04-19T19:55:08.502Z,4.93
2023-04-19T20:00:22.937Z,5.05
2023-04-19T20:02:56.048Z,6.30
2023-04-19T20:05:26.815Z,4.78
2023-04-19T20:08:05.821Z,7.65
2023-04-19T20:10:34.504Z,5.07
2023-04-19T20:13:01.445Z,5.05
2023-04-19T20:18:08.775Z,4.32
2023-04-19T20:20:36.558Z,5.70
2023-04-19T20:23:03.481Z,3.95
2023-04-19T20:25:30.894Z,3.40
2023-04-19T20:27:57.346Z,4.85
2023-04-19T20:30:24.753Z,8.73
2023-04-19T20:32:51.246Z,6.80
2023-04-19T20:35:19.475Z,7.97
2023-04-19T20:37:46.569Z,11.05
2023-04-19T20:40:15.083Z,9.70
2023-04-19T20:42:42.379Z,9.65
2023-04-19T20:45:11.451Z,7.07
2023-04-19T20:47:40.483Z,7.22
2023-04-19T20:50:08.482Z,6.47
2023-04-19T20:52:35.474Z,8.18
2023-04-19T20:55:01.962Z,6.72
2023-04-19T20:57:28.422Z,4.53
2023-04-19T20:59:55.263Z,7.18
2023-04-19T21:02:21.759Z,6.57
2023-04-19T21:04:50.867Z,5.00
2023-04-19T21:07:17.279Z,4.97
2023-04-19T21:09:43.986Z,4.63
2023-04-19T21:12:10.716Z,8.80
2023-04-19T21:14:39.880Z,5.53
2023-04-19T21:17:06.950Z,7.07
2023-04-19T21:19:33.323Z,7.57
2023-04-19T21:22:01.034Z,19.80
2023-04-19T21:24:27.750Z,18.67
2023-04-19T21:26:54.528Z,11.07
2023-04-19T21:29:21.619Z,7.20
2023-04-19T21:31:48.044Z,7.53
2023-04-19T21:34:14.596Z,9.80
2023-04-19T21:36:41.063Z,11.45
2023-04-19T21:39:09.378Z,12.70
2023-04-19T21:41:36.921Z,18.13
2023-04-19T21:44:05.784Z,12.70
2023-04-19T21:46:32.532Z,9.38
2023-04-19T21:48:58.951Z,10.93
2023-04-19T21:51:28.032Z,7.22
2023-04-19T21:53:54.854Z,7.45
2023-04-19T21:56:23.904Z,5.95
2023-04-19T21:58:52.274Z,7.75
2023-04-19T22:01:18.692Z,5.32
2023-04-19T22:03:45.808Z,6.85
2023-04-19T22:06:12.369Z,5.90
2023-04-19T22:08:39.364Z,5.93
2023-04-19T22:11:06.117Z,6.20
2023-04-19T22:13:32.518Z,9.57
2023-04-19T22:15:59.378Z,11.00
2023-04-19T22:18:26.099Z,14.80
2023-04-19T22:20:52.458Z,11.60
2023-04-19T22:23:19.089Z,10.85
2023-04-19T22:25:45.645Z,10.55
2023-04-19T22:28:12.156Z,10.57
2023-04-19T22:30:38.603Z,9.70
2023-04-19T22:33:07.498Z,8.48
2023-04-19T22:35:33.879Z,12.32
2023-04-19T22:38:00.509Z,8.90
2023-04-19T22:40:27.009Z,10.68
2023-04-19T22:43:00.868Z,9.02
2023-04-19T22:45:30.526Z,8.25
2023-04-19T22:47:57.003Z,8.75
2023-04-19T22:50:23.604Z,8.10
2023-04-19T22:52:50.386Z,8.10
2023-04-19T22:55:16.874Z,9.88
2023-04-19T22:57:43.261Z,9.77
2023-04-19T23:00:10.115Z,8.75
2023-04-19T23:02:38.454Z,10.00
2023-04-19T23:05:06.414Z,8.30
2023-04-19T23:07:35.424Z,7.18
2023-04-19T23:10:01.845Z,11.70
2023-04-19T23:12:28.287Z,7.43
2023-04-19T23:14:54.636Z,10.87
2023-04-19T23:17:21.140Z,8.35
2023-04-19T23:19:48.926Z,11.50
2023-04-19T23:22:15.588Z,12.52
2023-04-19T23:24:44.323Z,8.27
2023-04-19T23:27:12.553Z,8.20
2023-04-19T23:29:39.097Z,8.70
2023-04-19T23:32:05.849Z,9.27
2023-04-19T23:34:32.416Z,10.73
2023-04-19T23:36:59.931Z,8.93
2023-04-19T23:39:26.464Z,9.68
2023-04-19T23:41:52.939Z,9.53
2023-04-19T23:44:19.373Z,9.80
2023-04-19T23:46:45.775Z,9.52
2023-04-19T23:49:12.362Z,5.87
2023-04-19T23:51:38.879Z,6.47
2023-04-19T23:54:08.089Z,7.60
2023-04-19T23:56:34.806Z,6.25
2023-04-19T23:59:03.373Z,9.20
